sensor_id;sensor_type;location;lat;lon;timestamp;P1;durP1;ratioP1;P2;durP2;ratioP2
64615;SDS011;51027;42.162;24.754;2023-04-03T00:01:28;8.73;;;2.85;;
64615;SDS011;51027;42.162;24.754;2023-04-03T00:03:54;6.75;;;2.45;;
64615;SDS011;51027;42.162;24.754;2023-04-03T00:06:20;6.47;;;2.30;;
64615;SDS011;51027;42.162;24.754;2023-04-03T00:08:46;8.20;;;2.50;;
64615;SDS011;51027;42.162;24.754;2023-04-03T00:11:12;7.60;;;2.63;;
64615;SDS011;51027;42.162;24.754;2023-04-03T00:13:38;6.85;;;2.47;;
64615;SDS011;51027;42.162;24.754;2023-04-03T00:16:04;10.30;;;2.92;;
64615;SDS011;51027;42.162;24.754;2023-04-03T00:18:30;10.48;;;3.28;;
64615;SDS011;51027;42.162;24.754;2023-04-03T00:20:56;11.25;;;3.10;;
64615;SDS011;51027;42.162;24.754;2023-04-03T00:23:21;8.90;;;2.80;;
64615;SDS011;51027;42.162;24.754;2023-04-03T00:25:48;7.85;;;2.80;;
64615;SDS011;51027;42.162;24.754;2023-04-03T00:28:15;8.93;;;2.65;;
64615;SDS011;51027;42.162;24.754;2023-04-03T00:30:41;7.35;;;2.67;;
64615;SDS011;51027;42.162;24.754;2023-04-03T00:33:06;8.00;;;2.60;;
64615;SDS011;51027;42.162;24.754;2023-04-03T00:35:33;6.90;;;2.75;;
64615;SDS011;51027;42.162;24.754;2023-04-03T00:38:00;10.07;;;2.83;;
64615;SDS011;51027;42.162;24.754;2023-04-03T00:40:25;8.95;;;3.03;;
64615;SDS011;51027;42.162;24.754;2023-04-03T00:42:57;11.00;;;3.47;;
64615;SDS011;51027;42.162;24.754;2023-04-03T00:47:54;11.18;;;3.40;;
64615;SDS011;51027;42.162;24.754;2023-04-03T00:50:21;10.15;;;3.40;;
64615;SDS011;51027;42.162;24.754;2023-04-03T00:52:47;9.40;;;2.75;;
64615;SDS011;51027;42.162;24.754;2023-04-03T00:55:14;10.32;;;3.38;;
64615;SDS011;51027;42.162;24.754;2023-04-03T00:57:41;11.02;;;3.22;;
64615;SDS011;51027;42.162;24.754;2023-04-03T01:00:09;10.02;;;3.13;;
64615;SDS011;51027;42.162;24.754;2023-04-03T01:02:37;8.98;;;3.13;;
64615;SDS011;51027;42.162;24.754;2023-04-03T01:05:06;10.80;;;3.63;;
64615;SDS011;51027;42.162;24.754;2023-04-03T01:07:32;13.38;;;3.75;;
64615;SDS011;51027;42.162;24.754;2023-04-03T01:10:03;8.68;;;2.90;;
64615;SDS011;51027;42.162;24.754;2023-04-03T01:15:00;10.98;;;3.40;;
64615;SDS011;51027;42.162;24.754;2023-04-03T01:17:40;8.95;;;3.20;;
64615;SDS011;51027;42.162;24.754;2023-04-03T01:25:19;9.32;;;3.17;;
64615;SDS011;51027;42.162;24.754;2023-04-03T01:27:44;8.25;;;3.15;;
64615;SDS011;51027;42.162;24.754;2023-04-03T01:30:10;9.30;;;2.80;;
64615;SDS011;51027;42.162;24.754;2023-04-03T01:32:37;10.32;;;3.00;;
64615;SDS011;51027;42.162;24.754;2023-04-03T01:35:03;9.13;;;3.08;;
64615;SDS011;51027;42.162;24.754;2023-04-03T01:37:29;7.68;;;2.70;;
64615;SDS011;51027;42.162;24.754;2023-04-03T01:39:54;7.97;;;2.65;;
64615;SDS011;51027;42.162;24.754;2023-04-03T01:42:20;9.85;;;3.13;;
64615;SDS011;51027;42.162;24.754;2023-04-03T01:44:45;6.35;;;2.67;;
64615;SDS011;51027;42.162;24.754;2023-04-03T01:47:11;7.07;;;2.65;;
64615;SDS011;51027;42.162;24.754;2023-04-03T01:49:36;7.05;;;2.58;;
64615;SDS011;51027;42.162;24.754;2023-04-03T01:52:02;15.90;;;3.60;;
64615;SDS011;51027;42.162;24.754;2023-04-03T01:54:27;8.68;;;3.15;;
64615;SDS011;51027;42.162;24.754;2023-04-03T01:56:53;10.20;;;3.22;;
64615;SDS011;51027;42.162;24.754;2023-04-03T01:59:18;13.13;;;3.53;;
64615;SDS011;51027;42.162;24.754;2023-04-03T02:01:44;12.82;;;3.17;;
64615;SDS011;51027;42.162;24.754;2023-04-03T02:04:10;10.52;;;3.08;;
64615;SDS011;51027;42.162;24.754;2023-04-03T02:06:36;11.95;;;3.08;;
64615;SDS011;51027;42.162;24.754;2023-04-03T02:09:02;10.35;;;3.47;;
64615;SDS011;51027;42.162;24.754;2023-04-03T02:11:28;10.80;;;3.55;;
64615;SDS011;51027;42.162;24.754;2023-04-03T02:13:53;11.55;;;3.00;;
64615;SDS011;51027;42.162;24.754;2023-04-03T02:16:19;10.32;;;3.30;;
64615;SDS011;51027;42.162;24.754;2023-04-03T02:18:44;8.80;;;3.00;;
64615;SDS011;51027;42.162;24.754;2023-04-03T02:21:09;8.57;;;2.85;;
64615;SDS011;51027;42.162;24.754;2023-04-03T02:23:35;9.02;;;2.95;;
64615;SDS011;51027;42.162;24.754;2023-04-03T02:26:05;9.10;;;3.00;;
64615;SDS011;51027;42.162;24.754;2023-04-03T02:28:33;7.65;;;2.80;;
64615;SDS011;51027;42.162;24.754;2023-04-03T02:30:59;10.25;;;3.30;;
64615;SDS011;51027;42.162;24.754;2023-04-03T02:33:24;10.15;;;3.13;;
64615;SDS011;51027;42.162;24.754;2023-04-03T02:35:53;10.85;;;3.90;;
64615;SDS011;51027;42.162;24.754;2023-04-03T02:38:22;13.80;;;3.75;;
64615;SDS011;51027;42.162;24.754;2023-04-03T02:40:48;11.48;;;3.70;;
64615;SDS011;51027;42.162;24.754;2023-04-03T02:43:14;10.75;;;3.55;;
64615;SDS011;51027;42.162;24.754;2023-04-03T02:45:39;12.68;;;3.83;;
64615;SDS011;51027;42.162;24.754;2023-04-03T02:48:05;8.77;;;3.47;;
64615;SDS011;51027;42.162;24.754;2023-04-03T02:50:31;12.07;;;3.80;;
64615;SDS011;51027;42.162;24.754;2023-04-03T02:52:56;11.70;;;4.15;;
64615;SDS011;51027;42.162;24.754;2023-04-03T02:55:21;13.38;;;4.03;;
64615;SDS011;51027;42.162;24.754;2023-04-03T02:57:47;10.88;;;3.83;;
64615;SDS011;51027;42.162;24.754;2023-04-03T03:00:12;12.38;;;4.00;;
64615;SDS011;51027;42.162;24.754;2023-04-03T03:02:39;13.27;;;4.15;;
64615;SDS011;51027;42.162;24.754;2023-04-03T03:05:05;14.68;;;5.63;;
64615;SDS011;51027;42.162;24.754;2023-04-03T03:07:31;13.90;;;4.22;;
64615;SDS011;51027;42.162;24.754;2023-04-03T03:09:57;13.45;;;4.13;;
64615;SDS011;51027;42.162;24.754;2023-04-03T03:12:22;14.43;;;5.10;;
64615;SDS011;51027;42.162;24.754;2023-04-03T03:14:49;12.70;;;4.35;;
64615;SDS011;51027;42.162;24.754;2023-04-03T03:17:14;15.73;;;4.32;;
64615;SDS011;51027;42.162;24.754;2023-04-03T03:19:40;10.65;;;4.15;;
64615;SDS011;51027;42.162;24.754;2023-04-03T03:22:06;11.23;;;3.63;;
64615;SDS011;51027;42.162;24.754;2023-04-03T03:24:31;15.13;;;5.00;;
64615;SDS011;51027;42.162;24.754;2023-04-03T03:26:57;13.63;;;5.03;;
64615;SDS011;51027;42.162;24.754;2023-04-03T03:29:22;11.88;;;3.80;;
64615;SDS011;51027;42.162;24.754;2023-04-03T03:31:47;13.10;;;4.32;;
64615;SDS011;51027;42.162;24.754;2023-04-03T03:34:13;11.07;;;3.38;;
64615;SDS011;51027;42.162;24.754;2023-04-03T03:36:38;11.13;;;3.53;;
64615;SDS011;51027;42.162;24.754;2023-04-03T03:39:04;14.00;;;4.35;;
64615;SDS011;51027;42.162;24.754;2023-04-03T03:41:29;12.07;;;3.92;;
64615;SDS011;51027;42.162;24.754;2023-04-03T03:43:55;13.68;;;4.32;;
64615;SDS011;51027;42.162;24.754;2023-04-03T03:46:20;12.60;;;4.25;;
64615;SDS011;51027;42.162;24.754;2023-04-03T03:48:46;10.05;;;3.38;;
64615;SDS011;51027;42.162;24.754;2023-04-03T03:51:11;9.40;;;3.38;;
64615;SDS011;51027;42.162;24.754;2023-04-03T03:53:37;12.77;;;3.30;;
64615;SDS011;51027;42.162;24.754;2023-04-03T03:56:02;15.30;;;3.92;;
64615;SDS011;51027;42.162;24.754;2023-04-03T03:58:28;11.48;;;4.35;;
64615;SDS011;51027;42.162;24.754;2023-04-03T04:00:54;12.23;;;3.85;;
64615;SDS011;51027;42.162;24.754;2023-04-03T04:03:20;11.63;;;3.72;;
64615;SDS011;51027;42.162;24.754;2023-04-03T04:05:46;13.73;;;3.85;;
64615;SDS011;51027;42.162;24.754;2023-04-03T04:08:11;13.45;;;4.38;;
64615;SDS011;51027;42.162;24.754;2023-04-03T04:10:37;13.32;;;4.00;;
64615;SDS011;51027;42.162;24.754;2023-04-03T04:13:03;11.77;;;3.85;;
64615;SDS011;51027;42.162;24.754;2023-04-03T04:15:28;15.90;;;4.68;;
64615;SDS011;51027;42.162;24.754;2023-04-03T04:17:54;14.18;;;4.75;;
64615;SDS011;51027;42.162;24.754;2023-04-03T04:20:19;16.98;;;5.03;;
64615;SDS011;51027;42.162;24.754;2023-04-03T04:22:45;16.55;;;4.80;;
64615;SDS011;51027;42.162;24.754;2023-04-03T04:25:10;15.52;;;5.20;;
64615;SDS011;51027;42.162;24.754;2023-04-03T04:27:36;14.52;;;4.55;;
64615;SDS011;51027;42.162;24.754;2023-04-03T04:30:02;18.50;;;5.60;;
64615;SDS011;51027;42.162;24.754;2023-04-03T04:32:29;21.70;;;7.53;;
64615;SDS011;51027;42.162;24.754;2023-04-03T04:34:55;20.80;;;7.35;;
64615;SDS011;51027;42.162;24.754;2023-04-03T04:37:20;19.83;;;6.82;;
64615;SDS011;51027;42.162;24.754;2023-04-03T04:39:46;18.75;;;6.78;;
64615;SDS011;51027;42.162;24.754;2023-04-03T04:42:11;18.13;;;6.28;;
64615;SDS011;51027;42.162;24.754;2023-04-03T04:44:38;18.13;;;6.95;;
64615;SDS011;51027;42.162;24.754;2023-04-03T04:47:04;20.60;;;7.18;;
64615;SDS011;51027;42.162;24.754;2023-04-03T04:49:30;20.27;;;7.20;;
64615;SDS011;51027;42.162;24.754;2023-04-03T04:51:55;22.98;;;7.70;;
64615;SDS011;51027;42.162;24.754;2023-04-03T04:54:21;19.38;;;6.90;;
64615;SDS011;51027;42.162;24.754;2023-04-03T04:56:46;18.65;;;8.25;;
64615;SDS011;51027;42.162;24.754;2023-04-03T04:59:12;22.05;;;8.90;;
64615;SDS011;51027;42.162;24.754;2023-04-03T05:01:37;17.58;;;7.20;;
64615;SDS011;51027;42.162;24.754;2023-04-03T05:04:03;18.35;;;6.07;;
64615;SDS011;51027;42.162;24.754;2023-04-03T05:06:28;21.33;;;8.15;;
64615;SDS011;51027;42.162;24.754;2023-04-03T05:08:56;19.92;;;8.32;;
64615;SDS011;51027;42.162;24.754;2023-04-03T05:11:22;22.80;;;8.82;;
64615;SDS011;51027;42.162;24.754;2023-04-03T05:13:47;21.55;;;7.82;;
64615;SDS011;51027;42.162;24.754;2023-04-03T05:16:13;18.20;;;8.15;;
64615;SDS011;51027;42.162;24.754;2023-04-03T05:18:38;21.00;;;8.13;;
64615;SDS011;51027;42.162;24.754;2023-04-03T05:21:04;21.85;;;8.38;;
64615;SDS011;51027;42.162;24.754;2023-04-03T05:23:29;17.35;;;6.50;;
64615;SDS011;51027;42.162;24.754;2023-04-03T05:25:55;17.95;;;6.93;;
64615;SDS011;51027;42.162;24.754;2023-04-03T05:28:20;17.63;;;6.93;;
64615;SDS011;51027;42.162;24.754;2023-04-03T05:30:52;20.70;;;7.68;;
64615;SDS011;51027;42.162;24.754;2023-04-03T05:33:19;18.60;;;6.90;;
64615;SDS011;51027;42.162;24.754;2023-04-03T05:35:44;16.65;;;6.75;;
64615;SDS011;51027;42.162;24.754;2023-04-03T05:38:10;22.77;;;7.40;;
64615;SDS011;51027;42.162;24.754;2023-04-03T05:40:36;18.48;;;7.60;;
64615;SDS011;51027;42.162;24.754;2023-04-03T05:43:01;19.65;;;7.22;;
64615;SDS011;51027;42.162;24.754;2023-04-03T05:45:27;21.92;;;8.07;;
64615;SDS011;51027;42.162;24.754;2023-04-03T05:47:52;17.33;;;7.30;;
64615;SDS011;51027;42.162;24.754;2023-04-03T05:50:17;21.08;;;8.10;;
64615;SDS011;51027;42.162;24.754;2023-04-03T05:52:44;16.73;;;6.90;;
64615;SDS011;51027;42.162;24.754;2023-04-03T05:55:11;17.80;;;6.85;;
64615;SDS011;51027;42.162;24.754;2023-04-03T05:57:37;18.83;;;7.72;;
64615;SDS011;51027;42.162;24.754;2023-04-03T06:00:03;23.73;;;9.90;;
64615;SDS011;51027;42.162;24.754;2023-04-03T06:02:30;21.33;;;9.25;;
64615;SDS011;51027;42.162;24.754;2023-04-03T06:04:56;18.10;;;7.32;;
64615;SDS011;51027;42.162;24.754;2023-04-03T06:07:23;17.83;;;7.43;;
64615;SDS011;51027;42.162;24.754;2023-04-03T06:09:52;16.85;;;6.90;;
64615;SDS011;51027;42.162;24.754;2023-04-03T06:12:18;19.58;;;7.75;;
64615;SDS011;51027;42.162;24.754;2023-04-03T06:14:44;21.60;;;7.97;;
64615;SDS011;51027;42.162;24.754;2023-04-03T06:17:09;17.98;;;5.95;;
64615;SDS011;51027;42.162;24.754;2023-04-03T06:19:35;18.90;;;6.32;;
64615;SDS011;51027;42.162;24.754;2023-04-03T06:22:01;17.10;;;6.32;;
64615;SDS011;51027;42.162;24.754;2023-04-03T06:24:27;16.95;;;5.85;;
64615;SDS011;51027;42.162;24.754;2023-04-03T06:26:53;18.67;;;6.57;;
64615;SDS011;51027;42.162;24.754;2023-04-03T06:29:19;20.85;;;6.35;;
64615;SDS011;51027;42.162;24.754;2023-04-03T06:31:45;19.75;;;9.23;;
64615;SDS011;51027;42.162;24.754;2023-04-03T06:34:11;20.02;;;7.20;;
64615;SDS011;51027;42.162;24.754;2023-04-03T06:36:37;20.83;;;6.88;;
64615;SDS011;51027;42.162;24.754;2023-04-03T06:39:03;16.25;;;6.25;;
64615;SDS011;51027;42.162;24.754;2023-04-03T06:41:29;17.70;;;6.35;;
64615;SDS011;51027;42.162;24.754;2023-04-03T06:43:55;19.02;;;6.85;;
64615;SDS011;51027;42.162;24.754;2023-04-03T06:46:22;17.67;;;6.43;;
64615;SDS011;51027;42.162;24.754;2023-04-03T06:48:48;20.58;;;6.75;;
64615;SDS011;51027;42.162;24.754;2023-04-03T06:53:50;16.83;;;6.35;;
64615;SDS011;51027;42.162;24.754;2023-04-03T06:56:16;16.13;;;6.43;;
64615;SDS011;51027;42.162;24.754;2023-04-03T06:58:43;17.52;;;6.10;;
64615;SDS011;51027;42.162;24.754;2023-04-03T07:01:09;18.30;;;6.25;;
64615;SDS011;51027;42.162;24.754;2023-04-03T07:03:37;17.15;;;6.28;;
64615;SDS011;51027;42.162;24.754;2023-04-03T07:06:04;17.85;;;5.72;;
64615;SDS011;51027;42.162;24.754;2023-04-03T07:08:31;16.48;;;5.43;;
64615;SDS011;51027;42.162;24.754;2023-04-03T07:10:57;14.98;;;5.78;;
64615;SDS011;51027;42.162;24.754;2023-04-03T07:13:22;15.48;;;5.32;;
64615;SDS011;51027;42.162;24.754;2023-04-03T07:15:48;16.92;;;5.40;;
64615;SDS011;51027;42.162;24.754;2023-04-03T07:18:14;17.30;;;5.72;;
64615;SDS011;51027;42.162;24.754;2023-04-03T07:20:41;17.10;;;5.68;;
64615;SDS011;51027;42.162;24.754;2023-04-03T07:23:07;17.02;;;5.80;;
64615;SDS011;51027;42.162;24.754;2023-04-03T07:25:33;16.17;;;5.60;;
64615;SDS011;51027;42.162;24.754;2023-04-03T07:27:58;12.30;;;4.57;;
64615;SDS011;51027;42.162;24.754;2023-04-03T07:30:24;12.90;;;4.53;;
64615;SDS011;51027;42.162;24.754;2023-04-03T07:32:50;13.93;;;4.72;;
64615;SDS011;51027;42.162;24.754;2023-04-03T07:35:16;13.93;;;4.53;;
64615;SDS011;51027;42.162;24.754;2023-04-03T07:37:42;14.00;;;5.10;;
64615;SDS011;51027;42.162;24.754;2023-04-03T07:40:10;11.90;;;4.80;;
64615;SDS011;51027;42.162;24.754;2023-04-03T07:42:37;14.05;;;5.05;;
64615;SDS011;51027;42.162;24.754;2023-04-03T07:45:03;14.00;;;4.53;;
64615;SDS011;51027;42.162;24.754;2023-04-03T07:47:29;14.55;;;5.43;;
64615;SDS011;51027;42.162;24.754;2023-04-03T07:49:56;16.23;;;5.00;;
64615;SDS011;51027;42.162;24.754;2023-04-03T07:52:22;17.23;;;5.05;;
64615;SDS011;51027;42.162;24.754;2023-04-03T07:54:48;14.18;;;5.13;;
64615;SDS011;51027;42.162;24.754;2023-04-03T07:57:14;14.23;;;5.28;;
64615;SDS011;51027;42.162;24.754;2023-04-03T07:59:40;14.63;;;5.10;;
64615;SDS011;51027;42.162;24.754;2023-04-03T08:02:09;18.35;;;5.47;;
64615;SDS011;51027;42.162;24.754;2023-04-03T08:04:34;14.50;;;4.80;;
64615;SDS011;51027;42.162;24.754;2023-04-03T08:07:00;14.80;;;5.28;;
64615;SDS011;51027;42.162;24.754;2023-04-03T08:09:26;13.30;;;5.10;;
64615;SDS011;51027;42.162;24.754;2023-04-03T08:11:51;16.67;;;5.13;;
64615;SDS011;51027;42.162;24.754;2023-04-03T08:14:18;15.07;;;4.45;;
64615;SDS011;51027;42.162;24.754;2023-04-03T08:16:46;17.50;;;5.80;;
64615;SDS011;51027;42.162;24.754;2023-04-03T08:19:15;17.98;;;5.40;;
64615;SDS011;51027;42.162;24.754;2023-04-03T08:21:43;16.70;;;4.40;;
64615;SDS011;51027;42.162;24.754;2023-04-03T08:24:11;14.55;;;4.85;;
64615;SDS011;51027;42.162;24.754;2023-04-03T08:26:37;11.98;;;4.68;;
64615;SDS011;51027;42.162;24.754;2023-04-03T08:29:03;11.38;;;4.00;;
64615;SDS011;51027;42.162;24.754;2023-04-03T08:31:28;13.57;;;4.10;;
64615;SDS011;51027;42.162;24.754;2023-04-03T08:33:56;13.35;;;4.45;;
64615;SDS011;51027;42.162;24.754;2023-04-03T08:36:23;16.02;;;5.35;;
64615;SDS011;51027;42.162;24.754;2023-04-03T08:38:52;15.38;;;6.47;;
64615;SDS011;51027;42.162;24.754;2023-04-03T08:50:19;20.63;;;6.75;;
64615;SDS011;51027;42.162;24.754;2023-04-03T08:52:48;16.08;;;6.35;;
64615;SDS011;51027;42.162;24.754;2023-04-03T08:57:50;16.95;;;6.60;;
64615;SDS011;51027;42.162;24.754;2023-04-03T09:00:23;14.95;;;5.60;;
64615;SDS011;51027;42.162;24.754;2023-04-03T09:02:51;14.63;;;4.65;;
64615;SDS011;51027;42.162;24.754;2023-04-03T09:07:56;13.45;;;4.45;;
64615;SDS011;51027;42.162;24.754;2023-04-03T09:10:24;12.05;;;4.43;;
64615;SDS011;51027;42.162;24.754;2023-04-03T09:13:11;15.15;;;5.10;;
64615;SDS011;51027;42.162;24.754;2023-04-03T09:15:47;14.20;;;4.93;;
64615;SDS011;51027;42.162;24.754;2023-04-03T09:26:31;16.00;;;5.30;;
64615;SDS011;51027;42.162;24.754;2023-04-03T09:28:59;15.70;;;5.50;;
64615;SDS011;51027;42.162;24.754;2023-04-03T09:31:31;17.85;;;5.22;;
64615;SDS011;51027;42.162;24.754;2023-04-03T09:34:15;11.70;;;3.92;;
64615;SDS011;51027;42.162;24.754;2023-04-03T09:36:48;9.82;;;3.70;;
64615;SDS011;51027;42.162;24.754;2023-04-03T09:39:19;11.93;;;3.42;;
64615;SDS011;51027;42.162;24.754;2023-04-03T09:41:58;10.68;;;3.42;;
64615;SDS011;51027;42.162;24.754;2023-04-03T09:46:56;9.63;;;3.30;;
64615;SDS011;51027;42.162;24.754;2023-04-03T09:49:22;11.15;;;3.67;;
64615;SDS011;51027;42.162;24.754;2023-04-03T09:51:47;11.65;;;3.70;;
64615;SDS011;51027;42.162;24.754;2023-04-03T09:54:24;10.63;;;3.60;;
64615;SDS011;51027;42.162;24.754;2023-04-03T09:56:55;10.65;;;3.80;;
64615;SDS011;51027;42.162;24.754;2023-04-03T09:59:26;13.45;;;4.22;;
64615;SDS011;51027;42.162;24.754;2023-04-03T10:01:58;11.27;;;4.32;;
64615;SDS011;51027;42.162;24.754;2023-04-03T10:04:37;14.38;;;4.50;;
64615;SDS011;51027;42.162;24.754;2023-04-03T10:07:30;11.85;;;3.95;;
64615;SDS011;51027;42.162;24.754;2023-04-03T10:09:58;14.15;;;4.13;;
64615;SDS011;51027;42.162;24.754;2023-04-03T10:12:26;11.25;;;4.40;;
64615;SDS011;51027;42.162;24.754;2023-04-03T10:19:51;8.38;;;3.63;;
64615;SDS011;51027;42.162;24.754;2023-04-03T10:25:12;11.30;;;4.00;;
64615;SDS011;51027;42.162;24.754;2023-04-03T10:44:20;18.80;;;7.95;;
64615;SDS011;51027;42.162;24.754;2023-04-03T10:46:52;18.95;;;7.50;;
64615;SDS011;51027;42.162;24.754;2023-04-03T10:51:47;17.95;;;6.90;;
64615;SDS011;51027;42.162;24.754;2023-04-03T10:54:24;17.90;;;6.03;;
64615;SDS011;51027;42.162;24.754;2023-04-03T10:57:00;17.45;;;6.50;;
64615;SDS011;51027;42.162;24.754;2023-04-03T11:04:44;17.25;;;6.50;;
64615;SDS011;51027;42.162;24.754;2023-04-03T11:07:18;17.15;;;5.78;;
64615;SDS011;51027;42.162;24.754;2023-04-03T11:09:48;16.23;;;5.60;;
64615;SDS011;51027;42.162;24.754;2023-04-03T11:14:45;15.90;;;5.47;;
64615;SDS011;51027;42.162;24.754;2023-04-03T11:20:30;13.85;;;4.45;;
64615;SDS011;51027;42.162;24.754;2023-04-03T11:22:42;12.88;;;4.65;;
64615;SDS011;51027;42.162;24.754;2023-04-03T11:27:54;13.15;;;4.63;;
64615;SDS011;51027;42.162;24.754;2023-04-03T11:30:28;14.00;;;5.18;;
64615;SDS011;51027;42.162;24.754;2023-04-03T11:35:35;11.73;;;4.35;;
64615;SDS011;51027;42.162;24.754;2023-04-03T11:38:02;12.73;;;4.22;;
64615;SDS011;51027;42.162;24.754;2023-04-03T11:40:32;12.05;;;4.35;;
64615;SDS011;51027;42.162;24.754;2023-04-03T11:47:51;13.45;;;5.03;;
64615;SDS011;51027;42.162;24.754;2023-04-03T12:19:04;13.32;;;5.07;;
64615;SDS011;51027;42.162;24.754;2023-04-03T12:24:30;14.20;;;5.28;;
64615;SDS011;51027;42.162;24.754;2023-04-03T12:45:26;14.98;;;6.47;;
64615;SDS011;51027;42.162;24.754;2023-04-03T12:47:53;13.95;;;5.35;;
64615;SDS011;51027;42.162;24.754;2023-04-03T12:50:22;14.50;;;5.80;;
64615;SDS011;51027;42.162;24.754;2023-04-03T12:52:56;13.35;;;5.68;;
64615;SDS011;51027;42.162;24.754;2023-04-03T12:55:26;14.55;;;6.15;;
64615;SDS011;51027;42.162;24.754;2023-04-03T12:57:51;18.30;;;6.55;;
64615;SDS011;51027;42.162;24.754;2023-04-03T13:00:21;15.52;;;6.05;;
64615;SDS011;51027;42.162;24.754;2023-04-03T13:02:55;15.55;;;5.95;;
64615;SDS011;51027;42.162;24.754;2023-04-03T13:05:22;15.77;;;6.45;;
64615;SDS011;51027;42.162;24.754;2023-04-03T13:07:49;16.98;;;6.32;;
64615;SDS011;51027;42.162;24.754;2023-04-03T13:10:18;16.65;;;6.88;;
64615;SDS011;51027;42.162;24.754;2023-04-03T13:15:22;17.52;;;7.03;;
64615;SDS011;51027;42.162;24.754;2023-04-03T13:17:55;16.50;;;6.53;;
64615;SDS011;51027;42.162;24.754;2023-04-03T13:20:29;18.33;;;7.05;;
64615;SDS011;51027;42.162;24.754;2023-04-03T13:23:01;18.98;;;7.18;;
64615;SDS011;51027;42.162;24.754;2023-04-03T13:25:34;19.85;;;8.25;;
64615;SDS011;51027;42.162;24.754;2023-04-03T13:28:02;18.80;;;7.97;;
64615;SDS011;51027;42.162;24.754;2023-04-03T13:30:32;17.13;;;7.10;;
64615;SDS011;51027;42.162;24.754;2023-04-03T13:33:02;17.88;;;7.75;;
64615;SDS011;51027;42.162;24.754;2023-04-03T13:35:32;19.20;;;8.15;;
64615;SDS011;51027;42.162;24.754;2023-04-03T13:40:47;16.90;;;7.47;;
64615;SDS011;51027;42.162;24.754;2023-04-03T13:43:21;20.35;;;8.93;;
64615;SDS011;51027;42.162;24.754;2023-04-03T13:45:54;17.63;;;7.75;;
64615;SDS011;51027;42.162;24.754;2023-04-03T13:48:20;21.40;;;10.60;;
64615;SDS011;51027;42.162;24.754;2023-04-03T13:53:31;19.27;;;9.00;;
64615;SDS011;51027;42.162;24.754;2023-04-03T13:58:28;21.55;;;9.60;;
64615;SDS011;51027;42.162;24.754;2023-04-03T14:00:59;20.10;;;10.85;;
64615;SDS011;51027;42.162;24.754;2023-04-03T14:03:53;19.75;;;10.35;;
64615;SDS011;51027;42.162;24.754;2023-04-03T14:06:21;21.58;;;10.57;;
64615;SDS011;51027;42.162;24.754;2023-04-03T14:08:48;24.10;;;11.65;;
64615;SDS011;51027;42.162;24.754;2023-04-03T14:11:15;19.52;;;9.73;;
64615;SDS011;51027;42.162;24.754;2023-04-03T14:13:45;19.27;;;9.52;;
64615;SDS011;51027;42.162;24.754;2023-04-03T14:16:13;20.73;;;10.40;;
64615;SDS011;51027;42.162;24.754;2023-04-03T14:18:40;18.35;;;8.82;;
64615;SDS011;51027;42.162;24.754;2023-04-03T14:21:05;20.10;;;8.75;;
64615;SDS011;51027;42.162;24.754;2023-04-03T14:23:31;24.38;;;9.38;;
64615;SDS011;51027;42.162;24.754;2023-04-03T14:25:57;20.58;;;9.55;;
64615;SDS011;51027;42.162;24.754;2023-04-03T14:28:25;18.27;;;8.02;;
64615;SDS011;51027;42.162;24.754;2023-04-03T14:30:51;22.67;;;13.00;;
64615;SDS011;51027;42.162;24.754;2023-04-03T14:33:18;21.85;;;10.40;;
64615;SDS011;51027;42.162;24.754;2023-04-03T14:35:46;19.50;;;8.88;;
64615;SDS011;51027;42.162;24.754;2023-04-03T14:40:49;21.08;;;9.98;;
64615;SDS011;51027;42.162;24.754;2023-04-03T14:43:15;28.65;;;15.50;;
64615;SDS011;51027;42.162;24.754;2023-04-03T14:45:41;26.75;;;16.52;;
64615;SDS011;51027;42.162;24.754;2023-04-03T14:48:09;23.48;;;10.55;;
64615;SDS011;51027;42.162;24.754;2023-04-03T14:50:41;21.55;;;11.52;;
64615;SDS011;51027;42.162;24.754;2023-04-03T14:53:06;25.63;;;9.70;;
64615;SDS011;51027;42.162;24.754;2023-04-03T14:55:32;20.80;;;9.77;;
64615;SDS011;51027;42.162;24.754;2023-04-03T14:58:00;19.80;;;9.05;;
64615;SDS011;51027;42.162;24.754;2023-04-03T15:00:25;22.13;;;10.93;;
64615;SDS011;51027;42.162;24.754;2023-04-03T15:02:51;22.00;;;9.30;;
64615;SDS011;51027;42.162;24.754;2023-04-03T15:05:16;20.25;;;10.20;;
64615;SDS011;51027;42.162;24.754;2023-04-03T15:07:43;24.02;;;11.93;;
64615;SDS011;51027;42.162;24.754;2023-04-03T15:10:14;24.27;;;11.02;;
64615;SDS011;51027;42.162;24.754;2023-04-03T15:12:43;22.85;;;11.18;;
64615;SDS011;51027;42.162;24.754;2023-04-03T15:15:10;23.25;;;10.77;;
64615;SDS011;51027;42.162;24.754;2023-04-03T15:17:36;25.42;;;13.55;;
64615;SDS011;51027;42.162;24.754;2023-04-03T15:20:02;22.33;;;10.98;;
64615;SDS011;51027;42.162;24.754;2023-04-03T15:22:28;20.52;;;10.52;;
64615;SDS011;51027;42.162;24.754;2023-04-03T15:24:53;24.10;;;11.02;;
64615;SDS011;51027;42.162;24.754;2023-04-03T15:27:19;21.65;;;9.88;;
64615;SDS011;51027;42.162;24.754;2023-04-03T15:29:44;24.88;;;10.25;;
64615;SDS011;51027;42.162;24.754;2023-04-03T15:32:10;23.50;;;9.40;;
64615;SDS011;51027;42.162;24.754;2023-04-03T15:34:36;22.50;;;10.93;;
64615;SDS011;51027;42.162;24.754;2023-04-03T15:37:02;23.27;;;9.70;;
64615;SDS011;51027;42.162;24.754;2023-04-03T15:39:28;20.17;;;8.68;;
64615;SDS011;51027;42.162;24.754;2023-04-03T15:41:54;22.40;;;10.95;;
64615;SDS011;51027;42.162;24.754;2023-04-03T15:44:21;25.90;;;13.52;;
64615;SDS011;51027;42.162;24.754;2023-04-03T15:46:47;25.27;;;14.02;;
64615;SDS011;51027;42.162;24.754;2023-04-03T15:49:16;36.50;;;18.33;;
64615;SDS011;51027;42.162;24.754;2023-04-03T15:51:42;20.42;;;8.65;;
64615;SDS011;51027;42.162;24.754;2023-04-03T15:54:08;20.20;;;7.65;;
64615;SDS011;51027;42.162;24.754;2023-04-03T15:56:33;22.30;;;10.15;;
64615;SDS011;51027;42.162;24.754;2023-04-03T15:58:58;21.83;;;8.52;;
64615;SDS011;51027;42.162;24.754;2023-04-03T16:01:24;19.48;;;7.85;;
64615;SDS011;51027;42.162;24.754;2023-04-03T16:03:49;20.80;;;7.25;;
64615;SDS011;51027;42.162;24.754;2023-04-03T16:06:16;18.10;;;7.72;;
64615;SDS011;51027;42.162;24.754;2023-04-03T16:08:44;19.20;;;8.15;;
64615;SDS011;51027;42.162;24.754;2023-04-03T16:11:12;22.55;;;11.38;;
64615;SDS011;51027;42.162;24.754;2023-04-03T16:13:37;21.70;;;10.13;;
64615;SDS011;51027;42.162;24.754;2023-04-03T16:16:03;24.98;;;11.70;;
64615;SDS011;51027;42.162;24.754;2023-04-03T16:18:29;27.65;;;12.93;;
64615;SDS011;51027;42.162;24.754;2023-04-03T16:20:56;24.90;;;12.02;;
64615;SDS011;51027;42.162;24.754;2023-04-03T16:23:22;25.48;;;12.57;;
64615;SDS011;51027;42.162;24.754;2023-04-03T16:25:48;23.75;;;11.27;;
64615;SDS011;51027;42.162;24.754;2023-04-03T16:28:15;21.77;;;9.80;;
64615;SDS011;51027;42.162;24.754;2023-04-03T16:30:42;20.42;;;8.88;;
64615;SDS011;51027;42.162;24.754;2023-04-03T16:33:10;20.60;;;9.43;;
64615;SDS011;51027;42.162;24.754;2023-04-03T16:35:36;22.67;;;9.82;;
64615;SDS011;51027;42.162;24.754;2023-04-03T16:38:02;18.98;;;8.60;;
64615;SDS011;51027;42.162;24.754;2023-04-03T16:40:28;25.10;;;10.77;;
64615;SDS011;51027;42.162;24.754;2023-04-03T16:42:53;18.58;;;8.30;;
64615;SDS011;51027;42.162;24.754;2023-04-03T16:45:19;20.08;;;7.28;;
64615;SDS011;51027;42.162;24.754;2023-04-03T16:47:44;19.38;;;7.75;;
64615;SDS011;51027;42.162;24.754;2023-04-03T16:50:10;22.52;;;9.55;;